Gaz Unity — HOEJ — position and weather

sailwx.info

Track history (hours):
 
Tides and Currents Weather Stations Pressure Air Temp Water Temp Dewpoint Dewpoint Depression Visibility Wind Speed Wind Dir Waves Ship Positions

Gaz Unity

Last reported at 2015-Jul-06 06:32 UTC. Time now 2015-Jul-06 07:10 UTC.
Position N 35°09' E 015°18'.

Length 228 m; draft 10.4 m.

Type: Ship (hazmat cat C). MMSI: 353956000.

Date/timePositionNaut miles runAvg speedWind from/ knotsBaromVisibWave heightAir tempDewpointWater temp
2015-Jul-06 06:32N 35°09' E 015°18'2 2.0
2015-Jul-06 05:33N 35°08' E 015°19'1 0.9
2015-Jul-06 04:33N 35°08' E 015°18'1 0.8
2015-Jul-06 03:33N 35°08' E 015°17'1 0.8
2015-Jul-06 02:32N 35°08' E 015°16'1 0.7
2015-Jul-06 01:33N 35°08' E 015°15'1 0.8
2015-Jul-06 00:33N 35°08' E 015°14'1 0.7
2015-Jul-05 23:33N 35°08' E 015°14'1 0.5
2015-Jul-05 21:24N 35°07' E 015°12'0 0.5
2015-Jul-05 20:33N 35°07' E 015°12'1 0.3
2015-Jul-05 18:20N 35°07' E 015°11'0 0.3
2015-Jul-05 17:29N 35°08' E 015°11'1 0.4
2015-Jul-05 15:33N 35°08' E 015°10'1 0.5
2015-Jul-05 14:33N 35°08' E 015°10'1 0.6
2015-Jul-05 13:33N 35°09' E 015°09'1 0.6
2015-Jul-05 12:33N 35°09' E 015°08'1 0.7
2015-Jul-05 11:33N 35°09' E 015°08'1 0.7
2015-Jul-05 10:32N 35°10' E 015°07'1 0.6
2015-Jul-05 09:33N 35°10' E 015°06'1 0.6
2015-Jul-05 08:33N 35°10' E 015°05'1 0.6
2015-Jul-05 07:33N 35°10' E 015°05'1 0.7
2015-Jul-05 06:33N 35°10' E 015°04'1 0.6
2015-Jul-05 04:27N 35°10' E 015°03'0 0.5
2015-Jul-05 03:33N 35°10' E 015°02'0 0.4
2015-Jul-05 02:33N 35°10' E 015°01'0 0.4
2015-Jul-05 01:33N 35°10' E 015°01'0 0.3
2015-Jul-05 00:33N 35°10' E 015°01'0 0.3
2015-Jul-04 23:33N 35°10' E 015°00'0 0.4
2015-Jul-04 22:33N 35°10' E 014°60'0 0.3
2015-Jul-04 21:33N 35°09' E 014°59'0 0.3
2015-Jul-04 20:33N 35°10' E 014°59'0 0.3
2015-Jul-04 19:32N 35°10' E 014°59'0 0.2
2015-Jul-04 18:31N 35°10' E 014°58'0 0.2
2015-Jul-04 17:33N 35°10' E 014°58'0 0.3
2015-Jul-04 16:34N 35°10' E 014°58'0 0.3
2015-Jul-04 15:33N 35°10' E 014°58'0 0.3
2015-Jul-04 14:33N 35°10' E 014°58'1 0.4
2015-Jul-04 12:28N 35°11' E 014°57'0 0.4
2015-Jul-04 11:34N 35°11' E 014°56'0 0.4
2015-Jul-04 10:34N 35°11' E 014°56'0 0.4
2015-Jul-04 09:33N 35°12' E 014°56'2 0.2
2015-Jul-03 23:19N 35°11' E 014°53'0 0.4
2015-Jul-03 22:20N 35°11' E 014°54'0 0.3
2015-Jul-03 21:33N 35°11' E 014°54'1 0.5
2015-Jul-03 20:22N 35°11' E 014°54'0 0.5
2015-Jul-03 19:33N 35°11' E 014°55'1 0.5
2015-Jul-03 18:30N 35°12' E 014°55'1 0.2
2015-Jul-03 13:34N 35°13' E 014°56'1 0.7
2015-Jul-03 12:33N 35°13' E 014°55'3 2.7
2015-Jul-03 11:34N 35°15' E 014°52'0 0.2
2015-Jul-03 10:04N 35°15' E 014°52'0 0.1
2015-Jul-03 07:30N 35°15' E 014°52'0 0.1
2015-Jul-03 06:32N 35°15' E 014°52'0 0.1
2015-Jul-03 05:34N 35°15' E 014°52'0 0.2
2015-Jul-03 04:33N 35°15' E 014°52'0 0.2
2015-Jul-03 03:13N 35°15' E 014°53'1 0.4
2015-Jul-03 01:30N 35°14' E 014°53'1 0.5
2015-Jul-02 23:26N 35°15' E 014°55'0 0.5
2015-Jul-02 22:32N 35°15' E 014°55'0 0.5
2015-Jul-02 21:33N 35°15' E 014°55'0 0.4
2015-Jul-02 20:30N 35°16' E 014°56'1 0.2
2015-Jul-02 16:22N 35°17' E 014°56'0 0.1
2015-Jul-02 15:32N 35°17' E 014°56'4 0.8
2015-Jul-02 11:14N 35°17' E 014°51'3 4.8
2015-Jul-02 10:33N 35°16' E 014°47'0 0.2
2015-Jul-02 09:34N 35°16' E 014°47'0 0.4
2015-Jul-02 08:34N 35°16' E 014°48'0 0.5
2015-Jul-02 07:32N 35°16' E 014°48'1 0.5
2015-Jul-02 06:14N 35°16' E 014°49'0 0.4
2015-Jul-02 05:33N 35°16' E 014°49'0 0.3
2015-Jul-02 04:34N 35°16' E 014°50'0 0.4
2015-Jul-02 03:34N 35°16' E 014°50'0 0.4
2015-Jul-02 02:34N 35°16' E 014°51'0 0.5
2015-Jul-02 01:33N 35°16' E 014°51'1 0.4
2015-Jul-02 00:13N 35°17' E 014°52'0 0.4
2015-Jul-01 23:33N 35°17' E 014°52'0 0.3
2015-Jul-01 22:33N 35°17' E 014°52'0 0.3
2015-Jul-01 21:34N 35°18' E 014°52'0 0.3
2015-Jul-01 20:34N 35°18' E 014°51'0 0.3
2015-Jul-01 19:33N 35°18' E 014°51'0 0.2
2015-Jul-01 18:34N 35°18' E 014°51'0 0.1
2015-Jul-01 17:33N 35°18' E 014°51'0 0.5
2015-Jul-01 16:33N 35°18' E 014°52'0 0.0
2015-Jul-01 15:34N 35°18' E 014°52'0 0.0
2015-Jul-01 14:23N 35°18' E 014°52'0 0.1
2015-Jul-01 13:33N 35°18' E 014°52'0 0.2
2015-Jul-01 12:06N 35°18' E 014°52'0 0.0
2015-Jul-01 10:32N 35°18' E 014°52'0 0.2
2015-Jul-01 09:10N 35°19' E 014°52'0 0.3
2015-Jul-01 08:33N 35°19' E 014°52'0 0.3
2015-Jul-01 07:33N 35°19' E 014°53'1 0.5
2015-Jul-01 06:34N 35°19' E 014°53'1 0.6
2015-Jul-01 05:34N 35°20' E 014°53'1 0.7
2015-Jul-01 04:33N 35°21' E 014°54'1 0.7
2015-Jul-01 03:33N 35°21' E 014°54'1 0.7
2015-Jul-01 02:33N 35°22' E 014°53'1 0.6
2015-Jul-01 01:33N 35°22' E 014°53'1 0.6
2015-Jul-01 00:33N 35°23' E 014°52'1 0.5
2015-Jun-30 23:33N 35°23' E 014°52'1 0.5
2015-Jun-30 22:33N 35°23' E 014°51'1 0.5
2015-Jun-30 21:33N 35°23' E 014°51'0 0.4
2015-Jun-30 20:33N 35°22' E 014°50'0 0.4
2015-Jun-30 19:33N 35°22' E 014°50'0 0.4
2015-Jun-30 18:33N 35°21' E 014°51'0 0.4
2015-Jun-30 17:33N 35°21' E 014°51'0 0.5
2015-Jun-30 16:33N 35°21' E 014°51'1 0.5
2015-Jun-30 15:29N 35°21' E 014°52'0 0.5
2015-Jun-30 14:33N 35°21' E 014°53'0 0.4
2015-Jun-30 13:33N 35°21' E 014°53'1 0.5
2015-Jun-30 12:33N 35°22' E 014°54'1 0.6
2015-Jun-30 11:25N 35°22' E 014°54'1 0.6
2015-Jun-30 10:33N 35°23' E 014°54'1 0.6
2015-Jun-30 09:33N 35°23' E 014°54'1 0.6
2015-Jun-30 08:10N 35°24' E 014°54'0 0.6
2015-Jun-30 07:25N 35°25' E 014°54'1 0.5
2015-Jun-30 06:14N 35°25' E 014°54'0 0.5
2015-Jun-30 05:33N 35°25' E 014°54'1 0.5
2015-Jun-30 04:33N 35°26' E 014°53'1 0.5
2015-Jun-30 03:31N 35°26' E 014°53'1 0.6
2015-Jun-30 02:33N 35°26' E 014°52'1 0.5
2015-Jun-30 01:33N 35°26' E 014°51'0 0.4
2015-Jun-30 00:33N 35°25' E 014°51'0 0.5
2015-Jun-29 23:33N 35°25' E 014°51'1 0.5
2015-Jun-29 22:33N 35°24' E 014°52'0 0.5
2015-Jun-29 21:33N 35°24' E 014°52'1 0.6
2015-Jun-29 20:31N 35°24' E 014°53'1 0.6
2015-Jun-29 19:13N 35°24' E 014°54'0 0.6
2015-Jun-29 18:33N 35°24' E 014°54'1 0.7
2015-Jun-29 17:33N 35°24' E 014°55'1 0.7
2015-Jun-29 16:33N 35°25' E 014°56'1 0.8
2015-Jun-29 15:28N 35°25' E 014°56'1 0.8
2015-Jun-29 14:11N 35°26' E 014°57'2 0.8
2015-Jun-29 12:19N 35°28' E 014°56'1 0.8
2015-Jun-29 11:34N 35°28' E 014°56'1 0.7
2015-Jun-29 10:33N 35°29' E 014°55'1 0.5
2015-Jun-29 09:33N 35°29' E 014°55'1 0.9
2015-Jun-29 08:33N 35°30' E 014°55'5 4.7
2015-Jun-29 07:29N 35°35' E 014°55'2 2.0
2015-Jun-29 06:33N 35°37' E 014°55'0 0.5
2015-Jun-29 05:33N 35°37' E 014°55'0 0.4
2015-Jun-29 04:34N 35°36' E 014°55'0 0.5
2015-Jun-29 03:33N 35°36' E 014°55'1 0.6
2015-Jun-29 02:33N 35°35' E 014°55'1 0.6
2015-Jun-29 01:33N 35°35' E 014°56'1 1.0
2015-Jun-29 00:11N 35°36' E 014°56'6 9.7
2015-Jun-28 23:33N 35°42' E 014°53'1110.9
2015-Jun-28 22:33N 35°52' E 014°49'0 0.4
2015-Jun-28 21:32N 35°52' E 014°48'0 0.0
2015-Jun-28 20:32N 35°52' E 014°48'0 0.0
2015-Jun-28 19:29N 35°52' E 014°48'0 0.0
2015-Jun-28 18:32N 35°52' E 014°48'0 0.0
2015-Jun-28 17:32N 35°52' E 014°48'0 0.0
2015-Jun-28 16:32N 35°52' E 014°48'0 0.0
2015-Jun-28 15:29N 35°52' E 014°48'0 0.0
2015-Jun-28 14:32N 35°52' E 014°48'0 0.0
2015-Jun-28 13:32N 35°52' E 014°48'0 0.0
2015-Jun-28 12:32N 35°52' E 014°48'3 3.5
2015-Jun-28 11:33N 35°49' E 014°49'1211.2
2015-Jun-28 10:31N 35°39' E 014°55'1713.0
2015-Jun-28 09:12N 35°23' E 015°05'24 3.5
2015-Jun-28 02:14N 35°01' E 015°17'1 1.0
2015-Jun-28 01:31N 35°01' E 015°16'12 1.3
2015-Jun-27 16:26N 35°07' E 015°04'1 1.2
2015-Jun-27 15:33N 35°08' E 015°03'1 1.1
2015-Jun-27 14:33N 35°08' E 015°02'1 1.0
2015-Jun-27 13:33N 35°09' E 015°01'1 1.0
2015-Jun-27 12:33N 35°09' E 014°60'1 0.7
2015-Jun-27 11:33N 35°10' E 014°59'4 4.1
2015-Jun-27 10:33N 35°07' E 014°55'12 5.4
2015-Jun-27 08:18N 34°58' E 014°45'6 2.8
2015-Jun-27 06:05N 34°55' E 014°39'1 1.0
2015-Jun-27 05:33N 34°55' E 014°39'7 1.8
2015-Jun-27 01:31N 35°02' E 014°35'2 2.1
2015-Jun-27 00:33N 35°03' E 014°33'2 2.0
2015-Jun-26 23:23N 35°03' E 014°30'2 1.9
2015-Jun-26 22:22N 35°05' E 014°28'2 1.8
2015-Jun-26 21:30N 35°06' E 014°27'5 0.9
2015-Jun-26 15:33N 35°10' E 014°23'1 0.6
2015-Jun-26 14:28N 35°10' E 014°23'1 1.0
2015-Jun-26 13:33N 35°11' E 014°23'5 1.3
2015-Jun-26 09:20N 35°15' E 014°27'1 1.4
2015-Jun-26 08:33N 35°16' E 014°28'  
Track history (hours):
 
Tides and Currents Weather Stations Pressure Air Temp Water Temp Dewpoint Dewpoint Depression Visibility Wind Speed Wind Dir Waves Ship Positions

Gaz Unity

Last reported at 2015-Jul-06 06:32 UTC. Time now 2015-Jul-06 07:10 UTC.
Position N 35°09' E 015°18'.

Length 228 m; draft 10.4 m.

Type: Ship (hazmat cat C). MMSI: 353956000.

Date/timePositionNaut miles runAvg speedWind from/ knotsBaromVisibWave heightAir tempDewpointWater temp
2015-Jul-06 06:32N 35°09' E 015°18'2 2.0
2015-Jul-06 05:33N 35°08' E 015°19'1 0.9
2015-Jul-06 04:33N 35°08' E 015°18'1 0.8
2015-Jul-06 03:33N 35°08' E 015°17'1 0.8
2015-Jul-06 02:32N 35°08' E 015°16'1 0.7
2015-Jul-06 01:33N 35°08' E 015°15'1 0.8
2015-Jul-06 00:33N 35°08' E 015°14'1 0.7
2015-Jul-05 23:33N 35°08' E 015°14'1 0.5
2015-Jul-05 21:24N 35°07' E 015°12'0 0.5
2015-Jul-05 20:33N 35°07' E 015°12'1 0.3
2015-Jul-05 18:20N 35°07' E 015°11'0 0.3
2015-Jul-05 17:29N 35°08' E 015°11'1 0.4
2015-Jul-05 15:33N 35°08' E 015°10'1 0.5
2015-Jul-05 14:33N 35°08' E 015°10'1 0.6
2015-Jul-05 13:33N 35°09' E 015°09'1 0.6
2015-Jul-05 12:33N 35°09' E 015°08'1 0.7
2015-Jul-05 11:33N 35°09' E 015°08'1 0.7
2015-Jul-05 10:32N 35°10' E 015°07'1 0.6
2015-Jul-05 09:33N 35°10' E 015°06'1 0.6
2015-Jul-05 08:33N 35°10' E 015°05'1 0.6
2015-Jul-05 07:33N 35°10' E 015°05'1 0.7
2015-Jul-05 06:33N 35°10' E 015°04'1 0.6
2015-Jul-05 04:27N 35°10' E 015°03'0 0.5
2015-Jul-05 03:33N 35°10' E 015°02'0 0.4
2015-Jul-05 02:33N 35°10' E 015°01'0 0.4
2015-Jul-05 01:33N 35°10' E 015°01'0 0.3
2015-Jul-05 00:33N 35°10' E 015°01'0 0.3
2015-Jul-04 23:33N 35°10' E 015°00'0 0.4
2015-Jul-04 22:33N 35°10' E 014°60'0 0.3
2015-Jul-04 21:33N 35°09' E 014°59'0 0.3
2015-Jul-04 20:33N 35°10' E 014°59'0 0.3
2015-Jul-04 19:32N 35°10' E 014°59'0 0.2
2015-Jul-04 18:31N 35°10' E 014°58'0 0.2
2015-Jul-04 17:33N 35°10' E 014°58'0 0.3
2015-Jul-04 16:34N 35°10' E 014°58'0 0.3
2015-Jul-04 15:33N 35°10' E 014°58'0 0.3
2015-Jul-04 14:33N 35°10' E 014°58'1 0.4
2015-Jul-04 12:28N 35°11' E 014°57'0 0.4
2015-Jul-04 11:34N 35°11' E 014°56'0 0.4
2015-Jul-04 10:34N 35°11' E 014°56'0 0.4
2015-Jul-04 09:33N 35°12' E 014°56'2 0.2
2015-Jul-03 23:19N 35°11' E 014°53'0 0.4
2015-Jul-03 22:20N 35°11' E 014°54'0 0.3
2015-Jul-03 21:33N 35°11' E 014°54'1 0.5
2015-Jul-03 20:22N 35°11' E 014°54'0 0.5
2015-Jul-03 19:33N 35°11' E 014°55'1 0.5
2015-Jul-03 18:30N 35°12' E 014°55'1 0.2
2015-Jul-03 13:34N 35°13' E 014°56'1 0.7
2015-Jul-03 12:33N 35°13' E 014°55'3 2.7
2015-Jul-03 11:34N 35°15' E 014°52'0 0.2
2015-Jul-03 10:04N 35°15' E 014°52'0 0.1
2015-Jul-03 07:30N 35°15' E 014°52'0 0.1
2015-Jul-03 06:32N 35°15' E 014°52'0 0.1
2015-Jul-03 05:34N 35°15' E 014°52'0 0.2
2015-Jul-03 04:33N 35°15' E 014°52'0 0.2
2015-Jul-03 03:13N 35°15' E 014°53'1 0.4
2015-Jul-03 01:30N 35°14' E 014°53'1 0.5
2015-Jul-02 23:26N 35°15' E 014°55'0 0.5
2015-Jul-02 22:32N 35°15' E 014°55'0 0.5
2015-Jul-02 21:33N 35°15' E 014°55'0 0.4
2015-Jul-02 20:30N 35°16' E 014°56'1 0.2
2015-Jul-02 16:22N 35°17' E 014°56'0 0.1
2015-Jul-02 15:32N 35°17' E 014°56'4 0.8
2015-Jul-02 11:14N 35°17' E 014°51'3 4.8
2015-Jul-02 10:33N 35°16' E 014°47'0 0.2
2015-Jul-02 09:34N 35°16' E 014°47'0 0.4
2015-Jul-02 08:34N 35°16' E 014°48'0 0.5
2015-Jul-02 07:32N 35°16' E 014°48'1 0.5
2015-Jul-02 06:14N 35°16' E 014°49'0 0.4
2015-Jul-02 05:33N 35°16' E 014°49'0 0.3
2015-Jul-02 04:34N 35°16' E 014°50'0 0.4
2015-Jul-02 03:34N 35°16' E 014°50'0 0.4
2015-Jul-02 02:34N 35°16' E 014°51'0 0.5
2015-Jul-02 01:33N 35°16' E 014°51'1 0.4
2015-Jul-02 00:13N 35°17' E 014°52'0 0.4
2015-Jul-01 23:33N 35°17' E 014°52'0 0.3
2015-Jul-01 22:33N 35°17' E 014°52'0 0.3
2015-Jul-01 21:34N 35°18' E 014°52'0 0.3
2015-Jul-01 20:34N 35°18' E 014°51'0 0.3
2015-Jul-01 19:33N 35°18' E 014°51'0 0.2
2015-Jul-01 18:34N 35°18' E 014°51'0 0.1
2015-Jul-01 17:33N 35°18' E 014°51'0 0.5
2015-Jul-01 16:33N 35°18' E 014°52'0 0.0
2015-Jul-01 15:34N 35°18' E 014°52'0 0.0
2015-Jul-01 14:23N 35°18' E 014°52'0 0.1
2015-Jul-01 13:33N 35°18' E 014°52'0 0.2
2015-Jul-01 12:06N 35°18' E 014°52'0 0.0
2015-Jul-01 10:32N 35°18' E 014°52'0 0.2
2015-Jul-01 09:10N 35°19' E 014°52'0 0.3
2015-Jul-01 08:33N 35°19' E 014°52'0 0.3
2015-Jul-01 07:33N 35°19' E 014°53'1 0.5
2015-Jul-01 06:34N 35°19' E 014°53'1 0.6
2015-Jul-01 05:34N 35°20' E 014°53'1 0.7
2015-Jul-01 04:33N 35°21' E 014°54'1 0.7
2015-Jul-01 03:33N 35°21' E 014°54'1 0.7
2015-Jul-01 02:33N 35°22' E 014°53'1 0.6
2015-Jul-01 01:33N 35°22' E 014°53'1 0.6
2015-Jul-01 00:33N 35°23' E 014°52'1 0.5
2015-Jun-30 23:33N 35°23' E 014°52'1 0.5
2015-Jun-30 22:33N 35°23' E 014°51'1 0.5
2015-Jun-30 21:33N 35°23' E 014°51'0 0.4
2015-Jun-30 20:33N 35°22' E 014°50'0 0.4
2015-Jun-30 19:33N 35°22' E 014°50'0 0.4
2015-Jun-30 18:33N 35°21' E 014°51'0 0.4
2015-Jun-30 17:33N 35°21' E 014°51'0 0.5
2015-Jun-30 16:33N 35°21' E 014°51'1 0.5
2015-Jun-30 15:29N 35°21' E 014°52'0 0.5
2015-Jun-30 14:33N 35°21' E 014°53'0 0.4
2015-Jun-30 13:33N 35°21' E 014°53'1 0.5
2015-Jun-30 12:33N 35°22' E 014°54'1 0.6
2015-Jun-30 11:25N 35°22' E 014°54'1 0.6
2015-Jun-30 10:33N 35°23' E 014°54'1 0.6
2015-Jun-30 09:33N 35°23' E 014°54'1 0.6
2015-Jun-30 08:10N 35°24' E 014°54'0 0.6
2015-Jun-30 07:25N 35°25' E 014°54'1 0.5
2015-Jun-30 06:14N 35°25' E 014°54'0 0.5
2015-Jun-30 05:33N 35°25' E 014°54'1 0.5
2015-Jun-30 04:33N 35°26' E 014°53'1 0.5
2015-Jun-30 03:31N 35°26' E 014°53'1 0.6
2015-Jun-30 02:33N 35°26' E 014°52'1 0.5
2015-Jun-30 01:33N 35°26' E 014°51'0 0.4
2015-Jun-30 00:33N 35°25' E 014°51'0 0.5
2015-Jun-29 23:33N 35°25' E 014°51'1 0.5
2015-Jun-29 22:33N 35°24' E 014°52'0 0.5
2015-Jun-29 21:33N 35°24' E 014°52'1 0.6
2015-Jun-29 20:31N 35°24' E 014°53'1 0.6
2015-Jun-29 19:13N 35°24' E 014°54'0 0.6
2015-Jun-29 18:33N 35°24' E 014°54'1 0.7
2015-Jun-29 17:33N 35°24' E 014°55'1 0.7
2015-Jun-29 16:33N 35°25' E 014°56'1 0.8
2015-Jun-29 15:28N 35°25' E 014°56'1 0.8
2015-Jun-29 14:11N 35°26' E 014°57'2 0.8
2015-Jun-29 12:19N 35°28' E 014°56'1 0.8
2015-Jun-29 11:34N 35°28' E 014°56'1 0.7
2015-Jun-29 10:33N 35°29' E 014°55'1 0.5
2015-Jun-29 09:33N 35°29' E 014°55'1 0.9
2015-Jun-29 08:33N 35°30' E 014°55'5 4.7
2015-Jun-29 07:29N 35°35' E 014°55'2 2.0
2015-Jun-29 06:33N 35°37' E 014°55'0 0.5
2015-Jun-29 05:33N 35°37' E 014°55'0 0.4
2015-Jun-29 04:34N 35°36' E 014°55'0 0.5
2015-Jun-29 03:33N 35°36' E 014°55'1 0.6
2015-Jun-29 02:33N 35°35' E 014°55'1 0.6
2015-Jun-29 01:33N 35°35' E 014°56'1 1.0
2015-Jun-29 00:11N 35°36' E 014°56'6 9.7
2015-Jun-28 23:33N 35°42' E 014°53'1110.9
2015-Jun-28 22:33N 35°52' E 014°49'0 0.4
2015-Jun-28 21:32N 35°52' E 014°48'0 0.0
2015-Jun-28 20:32N 35°52' E 014°48'0 0.0
2015-Jun-28 19:29N 35°52' E 014°48'0 0.0
2015-Jun-28 18:32N 35°52' E 014°48'0 0.0
2015-Jun-28 17:32N 35°52' E 014°48'0 0.0
2015-Jun-28 16:32N 35°52' E 014°48'0 0.0
2015-Jun-28 15:29N 35°52' E 014°48'0 0.0
2015-Jun-28 14:32N 35°52' E 014°48'0 0.0
2015-Jun-28 13:32N 35°52' E 014°48'0 0.0
2015-Jun-28 12:32N 35°52' E 014°48'3 3.5
2015-Jun-28 11:33N 35°49' E 014°49'1211.2
2015-Jun-28 10:31N 35°39' E 014°55'1713.0
2015-Jun-28 09:12N 35°23' E 015°05'24 3.5
2015-Jun-28 02:14N 35°01' E 015°17'1 1.0
2015-Jun-28 01:31N 35°01' E 015°16'12 1.3
2015-Jun-27 16:26N 35°07' E 015°04'1 1.2
2015-Jun-27 15:33N 35°08' E 015°03'1 1.1
2015-Jun-27 14:33N 35°08' E 015°02'1 1.0
2015-Jun-27 13:33N 35°09' E 015°01'1 1.0
2015-Jun-27 12:33N 35°09' E 014°60'1 0.7
2015-Jun-27 11:33N 35°10' E 014°59'4 4.1
2015-Jun-27 10:33N 35°07' E 014°55'12 5.4
2015-Jun-27 08:18N 34°58' E 014°45'6 2.8
2015-Jun-27 06:05N 34°55' E 014°39'1 1.0
2015-Jun-27 05:33N 34°55' E 014°39'7 1.8
2015-Jun-27 01:31N 35°02' E 014°35'2 2.1
2015-Jun-27 00:33N 35°03' E 014°33'2 2.0
2015-Jun-26 23:23N 35°03' E 014°30'2 1.9
2015-Jun-26 22:22N 35°05' E 014°28'2 1.8
2015-Jun-26 21:30N 35°06' E 014°27'5 0.9
2015-Jun-26 15:33N 35°10' E 014°23'1 0.6
2015-Jun-26 14:28N 35°10' E 014°23'1 1.0
2015-Jun-26 13:33N 35°11' E 014°23'5 1.3
2015-Jun-26 09:20N 35°15' E 014°27'1 1.4
2015-Jun-26 08:33N 35°16' E 014°28'  

Dump ship's entire track history